Latest Coastal Weather Observations for Shark Bay Airport

IDW60701

Issued at 8:02 pm WST Tuesday 26 May 2015 (issued every 10 minutes, with the page automatically refreshed every 10 minutes)

About coastal observations | Map of coastal stations | Coastal observations for WA | Marine services | Other Formats
Station Details ID: 006105 Name: SHARK BAY AIRPORT Lat: -25.89 Lon: 113.58 Height: 33.8 m
Data from the previous 72 hours. | See also: Recent months for locations in Western Australia
Date/Time
WST
Temp

°C
Wind Pressure Rain
since 9am
mm
Weather Cloud Vis
km
Sea
Height
m
Swell
Dir
 
Speed
knots
Gust
knots
hPa Trend Height
m
Period
s
Dir
26/08:00pm 20.0 S 13 18 1019.3 - 0.0 - - - - - - -
26/07:30pm 20.1 S 12 17 1019.0 - 0.0 - - - - - - -
26/07:00pm 20.3 S 11 14 1018.9 - 0.0 - - - - - - -
26/06:30pm 20.9 S 12 18 1018.6 - 0.0 - - - - - - -
26/06:00pm 21.4 S 13 18 1018.3 - 0.0 - - - - - - -
26/05:30pm 22.1 S 12 17 1017.8 - 0.0 - - - - - - -
26/05:00pm 23.6 SSW 12 15 1017.8 - 0.0 - - - - - - -
26/04:30pm 25.3 S 9 13 1017.7 - 0.0 - - - - - - -
26/04:00pm 25.6 S 9 13 1017.6 - 0.0 - - - - - - -
26/03:30pm 25.6 SSE 7 10 1017.6 - 0.0 - - - - - - -
26/03:00pm 25.8 SSE 8 12 1017.8 - 0.0 - - - - - - -
26/02:30pm 26.1 SSE 9 12 1017.8 - 0.0 - - - - - - -
26/02:00pm 25.5 SE 10 14 1018.1 - 0.0 - - - - - - -
26/01:30pm 24.9 SE 10 14 1018.5 - 0.0 - - - - - - -
26/01:00pm 24.8 SSE 8 11 1018.8 - 0.0 - - - - - - -
26/12:30pm 24.3 SSE 9 13 1019.3 - 0.0 - - - - - - -
26/12:00pm 23.9 SE 9 13 1019.7 - 0.0 - - - - - - -
26/11:30am 22.7 SSE 9 12 1020.2 - 0.0 - - - - - - -
26/11:00am 22.2 SE 9 11 1020.5 - 0.0 - - - - - - -
26/10:30am 21.4 SE 9 14 1020.8 - 0.0 - - - - - - -
26/10:00am 20.5 SE 10 13 1020.9 - 0.0 - - - - - - -
26/09:30am 19.4 SE 11 14 1021.0 - 0.0 - - - - - - -
26/09:00am 18.4 SE 11 14 1020.9 - 0.0 - - - - - - -
26/08:30am 17.9 SE 10 14 1020.8 - 0.0 - - - - - - -
26/08:00am 16.9 SE 8 11 1020.4 - 0.0 - - - - - - -
26/07:30am 15.3 SE 8 11 1020.3 - 0.0 - - - - - - -
26/07:00am 14.8 SSE 9 11 1020.0 - 0.0 - - - - - - -
26/06:30am 15.0 SSE 9 13 1019.8 - 0.0 - - - - - - -
26/06:00am 15.0 SSE 10 14 1019.5 - 0.0 - - - - - - -
26/05:30am 15.6 SSE 11 16 1019.3 - 0.0 - - - - - - -
26/05:00am 15.4 SSE 11 15 1019.2 - 0.0 - - - - - - -
26/04:30am 15.4 SSE 11 14 1019.2 - 0.0 - - - - - - -
26/04:00am 15.7 SSE 10 12 1019.3 - 0.0 - - - - - - -
26/03:30am 16.2 SSE 11 15 1019.1 - 0.0 - - - - - - -
26/03:00am 16.4 SSE 11 15 1019.1 - 0.0 - - - - - - -
26/02:30am 16.9 SSE 11 15 1019.2 - 0.0 - - - - - - -
26/02:00am 17.3 SSE 11 16 1019.3 - 0.0 - - - - - - -
26/01:30am 17.6 SSE 12 16 1019.1 - 0.0 - - - - - - -
26/01:00am 17.8 SSE 11 14 1019.2 - 0.0 - - - - - - -
26/12:30am 18.1 SSE 11 15 1019.1 - 0.0 - - - - - - -
26/12:00am 18.4 SSE 12 18 1019.3 - 0.0 - - - - - - -
 
Date/Time
WST
Temp

°C
Wind Pressure Rain
since 9am
mm
Weather Cloud Vis
km
Sea
Height
m
Swell
Dir
 
Speed
knots
Gust
knots
hPa Trend Height
m
Period
s
Dir
25/11:30pm 18.5 SSE 13 17 1019.3 - 0.0 - - - - - - -
25/11:00pm 18.7 SSE 12 17 1019.3 - 0.0 - - - - - - -
25/10:30pm 19.0 SSE 13 17 1019.3 - 0.0 - - - - - - -
25/10:00pm 19.2 SSE 11 16 1019.4 - 0.0 - - - - - - -
25/09:30pm 19.4 S 11 17 1019.4 - 0.0 - - - - - - -
25/09:00pm 19.4 S 11 14 1019.3 - 0.0 - - - - - - -
25/08:30pm 19.2 S 10 13 1019.4 - 0.0 - - - - - - -
25/08:00pm 19.6 S 10 14 1019.4 - 0.0 - - - - - - -
25/07:30pm 19.6 S 10 13 1019.1 - 0.0 - - - - - - -
25/07:00pm 19.5 S 9 11 1018.6 - 0.0 - - - - - - -
25/06:30pm 20.3 S 9 13 1018.4 - 0.0 - - - - - - -
25/06:00pm 21.0 S 10 14 1017.9 - 0.0 - - - - - - -
25/05:30pm 22.1 S 9 11 1017.6 - 0.0 - - - - - - -
25/05:00pm 23.2 SSW 11 14 1017.4 - 0.0 - - - - - - -
25/04:30pm 24.3 SSW 11 14 1017.2 - 0.0 - - - - - - -
25/04:00pm 25.3 SSW 14 17 1017.0 - 0.0 - - - - - - -
25/03:30pm 25.5 SSW 14 18 1016.7 - 0.0 - - - - - - -
25/03:00pm 25.4 SSW 15 19 1016.8 - 0.0 - - - - - - -
25/02:30pm 25.8 SSW 13 19 1016.7 - 0.0 - - - - - - -
25/02:00pm 26.2 S 7 13 1016.9 - 0.0 - - - - - - -
25/01:30pm 25.6 S 9 14 1017.1 - 0.0 - - - - - - -
25/01:00pm 26.0 SE 11 14 1017.5 - 0.0 - - - - - - -
25/12:30pm 25.8 SE 10 15 1017.8 - 0.0 - - - - - - -
25/12:00pm 24.9 SE 9 13 1018.1 - 0.0 - - - - - - -
25/11:30am 24.5 SE 10 15 1018.5 - 0.0 - - - - - - -
25/11:00am 23.6 SE 10 13 1018.8 - 0.0 - - - - - - -
25/10:30am 22.5 SE 8 11 1019.2 - 0.0 - - - - - - -
25/10:00am 21.2 SE 8 12 1019.4 - 0.0 - - - - - - -
25/09:30am 19.7 SE 9 11 1019.5 - 0.0 - - - - - - -
25/09:00am 18.2 SE 8 12 1019.3 - 0.0 - - - - - - -
25/08:30am 16.8 SE 9 12 1019.0 - 0.0 - - - - - - -
25/08:00am 15.1 SE 8 11 1018.9 - 0.0 - - - - - - -
25/07:30am 13.8 SE 7 11 1018.7 - 0.0 - - - - - - -
25/07:00am 13.3 SSE 8 10 1018.4 - 0.0 - - - - - - -
25/06:30am 13.6 SSE 8 11 1018.2 - 0.0 - - - - - - -
25/06:00am 13.5 SSE 9 11 1017.9 - 0.0 - - - - - - -
25/05:30am 13.3 SSE 9 11 1017.7 - 0.0 - - - - - - -
25/05:00am 13.5 SSE 8 11 1017.6 - 0.0 - - - - - - -
25/04:30am 13.9 SSE 9 11 1017.7 - 0.0 - - - - - - -
25/04:00am 14.4 SSE 9 12 1017.7 - 0.0 - - - - - - -
25/03:30am 14.4 SSE 9 11 1017.8 - 0.0 - - - - - - -
25/03:00am 14.6 SSE 9 13 1017.8 - 0.0 - - - - - - -
25/02:30am 14.9 SSE 9 12 1017.8 - 0.0 - - - - - - -
25/02:00am 15.2 SSE 9 12 1017.9 - 0.0 - - - - - - -
25/01:30am 15.4 SSE 10 13 1018.1 - 0.0 - - - - - - -
25/01:00am 15.9 SSE 10 13 1018.1 - 0.0 - - - - - - -
25/12:30am 16.5 SSE 9 13 1018.1 - 0.0 - - - - - - -
25/12:00am 17.0 SSE 11 15 1018.4 - 0.0 - - - - - - -
 
Date/Time
WST
Temp

°C
Wind Pressure Rain
since 9am
mm
Weather Cloud Vis
km
Sea
Height
m
Swell
Dir
 
Speed
knots
Gust
knots
hPa Trend Height
m
Period
s
Dir
24/11:30pm 17.6 SSE 12 18 1018.5 - 0.0 - - - - - - -
24/11:00pm 17.7 SSE 11 14 1018.6 - 0.0 - - - - - - -
24/10:30pm 17.9 SSE 9 12 1018.7 - 0.0 - - - - - - -
24/10:00pm 17.3 S 8 11 1018.6 - 0.0 - - - - - - -
24/09:30pm 17.6 S 9 11 1018.5 - 0.0 - - - - - - -
24/09:00pm 17.9 S 9 11 1018.3 - 0.0 - - - - - - -
24/08:30pm 18.2 S 10 12 1018.2 - 0.0 - - - - - - -
24/08:00pm 18.4 S 10 13 1018.0 - 0.0 - - - - - - -
24/07:30pm 18.8 SSW 10 13 1017.7 - 0.0 - - - - - - -
24/07:00pm 19.1 SSW 11 14 1017.4 - 0.0 - - - - - - -
24/06:30pm 18.7 SSW 10 11 1017.2 - 0.0 - - - - - - -
24/06:00pm 19.2 SSW 9 10 1016.9 - 0.0 - - - - - - -
24/05:30pm 20.5 SW 8 9 1016.7 - 0.0 - - - - - - -
24/05:00pm 21.9 SSW 10 13 1016.6 - 0.0 - - - - - - -
24/04:30pm 22.8 SSW 10 14 1016.5 - 0.0 - - - - - - -
24/04:00pm 23.2 SSW 12 16 1016.4 - 0.0 - - - - - - -
24/03:30pm 23.7 SSW 13 17 1016.4 - 0.0 - - - - - - -
24/03:00pm 23.9 SSW 11 15 1016.3 - 0.0 - - - - - - -
24/02:30pm 24.7 SSE 6 11 1016.4 - 0.0 - - - - - - -
24/02:00pm 24.6 SE 7 13 1016.6 - 0.0 - - - - - - -
24/01:30pm 24.3 SE 8 16 1016.9 - 0.0 - - - - - - -
24/01:00pm 24.2 SE 10 14 1017.5 - 0.0 - - - - - - -
24/12:30pm 23.9 SE 11 15 1017.9 - 0.0 - - - - - - -
24/12:00pm 23.5 ESE 10 15 1018.3 - 0.0 - - - - - - -
24/11:30am 23.5 ESE 10 14 1018.7 - 0.0 - - - - - - -
24/11:00am 22.5 ESE 11 15 1019.0 - 0.0 - - - - - - -
24/10:30am 21.9 ESE 11 15 1019.3 - 0.0 - - - - - - -
24/10:00am 21.0 ESE 10 15 1019.4 - 0.0 - - - - - - -
24/09:30am 19.7 ESE 11 14 1019.4 - 0.0 - - - - - - -
24/09:00am 18.9 ESE 11 14 1019.2 - 0.0 - - - - - - -
24/08:30am 17.6 ESE 9 12 1019.0 - 0.0 - - - - - - -
24/08:00am 16.1 SE 9 12 1018.8 - 0.0 - - - - - - -
24/07:30am 14.3 SE 8 11 1018.8 - 0.0 - - - - - - -
24/07:00am 12.6 SSE 7 9 1018.6 - 0.0 - - - - - - -
24/06:30am 12.9 SSE 6 7 1018.3 - 0.0 - - - - - - -
24/06:00am 13.9 SE 7 8 1018.2 - 0.0 - - - - - - -
24/05:30am 14.3 SE 8 11 1018.0 - 0.0 - - - - - - -
24/05:00am 14.2 SE 8 11 1017.9 - 0.0 - - - - - - -
24/04:30am 13.9 SE 6 8 1018.0 - 0.0 - - - - - - -
24/04:00am 14.1 SE 7 8 1018.3 - 0.0 - - - - - - -
24/03:30am 14.3 SE 8 10 1018.2 - 0.0 - - - - - - -
24/03:00am 14.0 SE 7 9 1018.3 - 0.0 - - - - - - -
24/02:30am 14.3 SSE 7 9 1018.2 - 0.0 - - - - - - -
24/02:00am 15.0 SSE 9 11 1018.1 - 0.0 - - - - - - -
24/01:30am 14.8 SE 8 9 1018.3 - 0.0 - - - - - - -
24/01:00am 15.4 SE 8 10 1018.3 - 0.0 - - - - - - -
24/12:30am 16.5 SSE 9 13 1018.4 - 0.0 - - - - - - -
24/12:00am 17.0 SSE 10 14 1018.4 - 0.0 - - - - - - -
 
Date/Time
WST
Temp

°C
Wind Pressure Rain
since 9am
mm
Weather Cloud Vis
km
Sea
Height
m
Swell
Dir
 
Speed
knots
Gust
knots
hPa Trend Height
m
Period
s
Dir
23/11:30pm 17.2 SSE 10 14 1018.5 - 0.0 - - - - - - -
23/11:00pm 17.4 S 10 13 1018.6 - 0.0 - - - - - - -
23/10:30pm 17.6 SSE 10 13 1018.7 - 0.0 - - - - - - -
23/10:00pm 18.1 SSE 10 14 1018.7 - 0.0 - - - - - - -
23/09:30pm 18.5 S 10 15 1018.7 - 0.0 - - - - - - -
23/09:00pm 18.7 S 11 14 1018.7 - 0.0 - - - - - - -
23/08:30pm 18.9 S 10 15 1018.6 - 0.0 - - - - - - -

Other Formats:

Comma delimited format used in spreadsheet applications
http://www.bom.gov.au/fwo/IDW60701/IDW60701.95402.axf

JavaScript Object Notation format (JSON) in row-major order
http://www.bom.gov.au/fwo/IDW60701/IDW60701.95402.json